sensor_id;sensor_type;location;lat;lon;timestamp;P1;durP1;ratioP1;P2;durP2;ratioP2
29378;SDS011;16362;47.202;15.258;2023-09-08T00:00:01;5.88;;;5.57;;
29378;SDS011;16362;47.202;15.258;2023-09-08T00:02:29;6.07;;;5.53;;
29378;SDS011;16362;47.202;15.258;2023-09-08T00:04:56;6.97;;;6.47;;
29378;SDS011;16362;47.202;15.258;2023-09-08T00:07:24;7.20;;;6.55;;
29378;SDS011;16362;47.202;15.258;2023-09-08T00:09:50;6.80;;;5.75;;
29378;SDS011;16362;47.202;15.258;2023-09-08T00:12:18;6.35;;;5.88;;
29378;SDS011;16362;47.202;15.258;2023-09-08T00:14:45;6.15;;;5.60;;
29378;SDS011;16362;47.202;15.258;2023-09-08T00:17:15;5.57;;;5.28;;
29378;SDS011;16362;47.202;15.258;2023-09-08T00:19:43;6.05;;;5.72;;
29378;SDS011;16362;47.202;15.258;2023-09-08T00:22:11;6.97;;;6.53;;
29378;SDS011;16362;47.202;15.258;2023-09-08T00:24:38;6.00;;;5.68;;
29378;SDS011;16362;47.202;15.258;2023-09-08T00:27:07;6.07;;;5.68;;
29378;SDS011;16362;47.202;15.258;2023-09-08T00:29:36;6.28;;;5.95;;
29378;SDS011;16362;47.202;15.258;2023-09-08T00:32:03;6.00;;;5.50;;
29378;SDS011;16362;47.202;15.258;2023-09-08T00:34:30;6.32;;;5.93;;
29378;SDS011;16362;47.202;15.258;2023-09-08T00:36:57;6.07;;;5.68;;
29378;SDS011;16362;47.202;15.258;2023-09-08T00:39:24;6.80;;;6.20;;
29378;SDS011;16362;47.202;15.258;2023-09-08T00:41:50;6.18;;;5.65;;
29378;SDS011;16362;47.202;15.258;2023-09-08T00:44:17;5.65;;;5.25;;
29378;SDS011;16362;47.202;15.258;2023-09-08T00:46:45;6.82;;;6.43;;
29378;SDS011;16362;47.202;15.258;2023-09-08T00:49:12;5.95;;;5.55;;
29378;SDS011;16362;47.202;15.258;2023-09-08T00:51:39;6.15;;;5.68;;
29378;SDS011;16362;47.202;15.258;2023-09-08T00:54:06;6.00;;;5.60;;
29378;SDS011;16362;47.202;15.258;2023-09-08T00:56:34;6.22;;;5.90;;
29378;SDS011;16362;47.202;15.258;2023-09-08T00:59:04;6.38;;;5.88;;
29378;SDS011;16362;47.202;15.258;2023-09-08T01:01:31;6.45;;;6.07;;
29378;SDS011;16362;47.202;15.258;2023-09-08T01:03:58;5.55;;;5.35;;
29378;SDS011;16362;47.202;15.258;2023-09-08T01:06:25;5.78;;;5.25;;
29378;SDS011;16362;47.202;15.258;2023-09-08T01:08:52;5.75;;;5.55;;
29378;SDS011;16362;47.202;15.258;2023-09-08T01:11:21;6.22;;;5.78;;
29378;SDS011;16362;47.202;15.258;2023-09-08T01:13:48;6.40;;;6.00;;
29378;SDS011;16362;47.202;15.258;2023-09-08T01:16:14;5.60;;;5.30;;
29378;SDS011;16362;47.202;15.258;2023-09-08T01:18:41;8.02;;;5.72;;
29378;SDS011;16362;47.202;15.258;2023-09-08T01:23:59;5.38;;;5.18;;
29378;SDS011;16362;47.202;15.258;2023-09-08T01:26:52;5.93;;;5.63;;
29378;SDS011;16362;47.202;15.258;2023-09-08T01:29:21;6.38;;;6.07;;
29378;SDS011;16362;47.202;15.258;2023-09-08T01:31:51;6.38;;;5.85;;
29378;SDS011;16362;47.202;15.258;2023-09-08T01:34:20;6.28;;;5.88;;
29378;SDS011;16362;47.202;15.258;2023-09-08T01:36:47;6.50;;;5.80;;
29378;SDS011;16362;47.202;15.258;2023-09-08T01:39:16;7.72;;;6.13;;
29378;SDS011;16362;47.202;15.258;2023-09-08T01:41:43;7.05;;;6.15;;
29378;SDS011;16362;47.202;15.258;2023-09-08T01:44:12;5.75;;;5.45;;
29378;SDS011;16362;47.202;15.258;2023-09-08T01:46:39;6.28;;;5.97;;
29378;SDS011;16362;47.202;15.258;2023-09-08T01:49:07;6.20;;;5.80;;
29378;SDS011;16362;47.202;15.258;2023-09-08T01:51:35;6.25;;;5.75;;
29378;SDS011;16362;47.202;15.258;2023-09-08T01:54:02;6.35;;;5.85;;
29378;SDS011;16362;47.202;15.258;2023-09-08T01:56:29;6.75;;;6.20;;
29378;SDS011;16362;47.202;15.258;2023-09-08T01:58:55;6.18;;;5.80;;
29378;SDS011;16362;47.202;15.258;2023-09-08T02:01:22;6.72;;;6.03;;
29378;SDS011;16362;47.202;15.258;2023-09-08T02:03:49;6.10;;;5.80;;
29378;SDS011;16362;47.202;15.258;2023-09-08T02:06:17;5.80;;;5.50;;
29378;SDS011;16362;47.202;15.258;2023-09-08T02:08:46;5.82;;;5.55;;
29378;SDS011;16362;47.202;15.258;2023-09-08T02:11:13;6.30;;;5.80;;
29378;SDS011;16362;47.202;15.258;2023-09-08T02:13:43;6.70;;;6.10;;
29378;SDS011;16362;47.202;15.258;2023-09-08T02:16:13;7.20;;;5.85;;
29378;SDS011;16362;47.202;15.258;2023-09-08T02:18:43;6.30;;;5.93;;
29378;SDS011;16362;47.202;15.258;2023-09-08T02:21:11;7.55;;;6.03;;
29378;SDS011;16362;47.202;15.258;2023-09-08T02:23:38;6.63;;;6.18;;
29378;SDS011;16362;47.202;15.258;2023-09-08T02:26:05;6.93;;;6.40;;
29378;SDS011;16362;47.202;15.258;2023-09-08T02:28:32;7.18;;;6.68;;
29378;SDS011;16362;47.202;15.258;2023-09-08T02:30:59;7.07;;;6.43;;
29378;SDS011;16362;47.202;15.258;2023-09-08T02:33:26;6.13;;;5.82;;
29378;SDS011;16362;47.202;15.258;2023-09-08T02:35:53;6.78;;;6.28;;
29378;SDS011;16362;47.202;15.258;2023-09-08T02:38:19;6.95;;;6.47;;
29378;SDS011;16362;47.202;15.258;2023-09-08T02:40:46;6.72;;;6.22;;
29378;SDS011;16362;47.202;15.258;2023-09-08T02:43:12;6.57;;;6.13;;
29378;SDS011;16362;47.202;15.258;2023-09-08T02:45:39;6.32;;;5.90;;
29378;SDS011;16362;47.202;15.258;2023-09-08T02:48:06;6.50;;;6.10;;
29378;SDS011;16362;47.202;15.258;2023-09-08T02:50:33;7.75;;;6.30;;
29378;SDS011;16362;47.202;15.258;2023-09-08T02:53:00;7.10;;;6.70;;
29378;SDS011;16362;47.202;15.258;2023-09-08T02:55:26;6.57;;;6.07;;
29378;SDS011;16362;47.202;15.258;2023-09-08T02:57:53;5.85;;;5.55;;
29378;SDS011;16362;47.202;15.258;2023-09-08T03:00:20;6.78;;;6.20;;
29378;SDS011;16362;47.202;15.258;2023-09-08T03:02:46;7.32;;;6.53;;
29378;SDS011;16362;47.202;15.258;2023-09-08T03:05:15;7.03;;;6.47;;
29378;SDS011;16362;47.202;15.258;2023-09-08T03:07:42;6.30;;;5.70;;
29378;SDS011;16362;47.202;15.258;2023-09-08T03:10:09;6.38;;;6.07;;
29378;SDS011;16362;47.202;15.258;2023-09-08T03:12:40;6.80;;;6.30;;
29378;SDS011;16362;47.202;15.258;2023-09-08T03:15:09;8.82;;;6.20;;
29378;SDS011;16362;47.202;15.258;2023-09-08T03:17:36;7.95;;;6.60;;
29378;SDS011;16362;47.202;15.258;2023-09-08T03:20:03;6.85;;;6.45;;
29378;SDS011;16362;47.202;15.258;2023-09-08T03:22:34;8.57;;;5.97;;
29378;SDS011;16362;47.202;15.258;2023-09-08T03:25:03;6.35;;;5.95;;
29378;SDS011;16362;47.202;15.258;2023-09-08T03:27:30;7.63;;;7.18;;
29378;SDS011;16362;47.202;15.258;2023-09-08T03:30:02;5.90;;;5.60;;
29378;SDS011;16362;47.202;15.258;2023-09-08T03:32:31;6.60;;;6.07;;
29378;SDS011;16362;47.202;15.258;2023-09-08T03:34:58;6.18;;;5.88;;
29378;SDS011;16362;47.202;15.258;2023-09-08T03:37:30;6.15;;;5.80;;
29378;SDS011;16362;47.202;15.258;2023-09-08T03:39:57;6.07;;;5.78;;
29378;SDS011;16362;47.202;15.258;2023-09-08T03:42:23;6.78;;;6.30;;
29378;SDS011;16362;47.202;15.258;2023-09-08T03:44:52;5.72;;;5.38;;
29378;SDS011;16362;47.202;15.258;2023-09-08T03:47:19;6.20;;;5.90;;
29378;SDS011;16362;47.202;15.258;2023-09-08T03:49:45;7.10;;;6.38;;
29378;SDS011;16362;47.202;15.258;2023-09-08T03:52:13;7.00;;;6.30;;
29378;SDS011;16362;47.202;15.258;2023-09-08T03:54:40;6.80;;;6.32;;
29378;SDS011;16362;47.202;15.258;2023-09-08T03:57:06;7.15;;;6.20;;
29378;SDS011;16362;47.202;15.258;2023-09-08T03:59:34;6.50;;;6.05;;
29378;SDS011;16362;47.202;15.258;2023-09-08T04:02:01;6.55;;;5.55;;
29378;SDS011;16362;47.202;15.258;2023-09-08T04:04:27;5.68;;;5.35;;
29378;SDS011;16362;47.202;15.258;2023-09-08T04:06:54;7.05;;;6.45;;
29378;SDS011;16362;47.202;15.258;2023-09-08T04:09:21;6.07;;;5.57;;
29378;SDS011;16362;47.202;15.258;2023-09-08T04:11:48;5.88;;;5.55;;
29378;SDS011;16362;47.202;15.258;2023-09-08T04:14:14;6.20;;;5.80;;
29378;SDS011;16362;47.202;15.258;2023-09-08T04:16:41;5.90;;;5.60;;
29378;SDS011;16362;47.202;15.258;2023-09-08T04:19:07;6.32;;;5.93;;
29378;SDS011;16362;47.202;15.258;2023-09-08T04:21:34;6.13;;;5.78;;
29378;SDS011;16362;47.202;15.258;2023-09-08T04:24:01;6.55;;;5.97;;
29378;SDS011;16362;47.202;15.258;2023-09-08T04:26:28;6.35;;;5.95;;
29378;SDS011;16362;47.202;15.258;2023-09-08T04:28:55;6.95;;;6.43;;
29378;SDS011;16362;47.202;15.258;2023-09-08T04:31:21;6.80;;;6.30;;
29378;SDS011;16362;47.202;15.258;2023-09-08T04:33:48;6.95;;;6.50;;
29378;SDS011;16362;47.202;15.258;2023-09-08T04:36:22;6.43;;;5.82;;
29378;SDS011;16362;47.202;15.258;2023-09-08T04:38:49;6.35;;;6.05;;
29378;SDS011;16362;47.202;15.258;2023-09-08T04:41:15;6.75;;;6.20;;
29378;SDS011;16362;47.202;15.258;2023-09-08T04:43:42;5.90;;;5.50;;
29378;SDS011;16362;47.202;15.258;2023-09-08T04:46:10;6.28;;;5.95;;
29378;SDS011;16362;47.202;15.258;2023-09-08T04:48:37;6.88;;;6.35;;
29378;SDS011;16362;47.202;15.258;2023-09-08T04:51:08;6.30;;;5.90;;
29378;SDS011;16362;47.202;15.258;2023-09-08T04:53:34;6.57;;;6.18;;
29378;SDS011;16362;47.202;15.258;2023-09-08T04:56:07;7.15;;;6.65;;
29378;SDS011;16362;47.202;15.258;2023-09-08T04:58:37;7.25;;;6.75;;
29378;SDS011;16362;47.202;15.258;2023-09-08T05:01:10;6.85;;;6.43;;
29378;SDS011;16362;47.202;15.258;2023-09-08T05:03:37;6.47;;;6.15;;
29378;SDS011;16362;47.202;15.258;2023-09-08T05:06:06;6.70;;;6.30;;
29378;SDS011;16362;47.202;15.258;2023-09-08T05:08:39;8.20;;;6.20;;
29378;SDS011;16362;47.202;15.258;2023-09-08T05:11:06;7.25;;;6.50;;
29378;SDS011;16362;47.202;15.258;2023-09-08T05:13:33;7.05;;;6.55;;
29378;SDS011;16362;47.202;15.258;2023-09-08T05:15:59;7.78;;;6.70;;
29378;SDS011;16362;47.202;15.258;2023-09-08T05:18:39;6.93;;;6.50;;
29378;SDS011;16362;47.202;15.258;2023-09-08T05:21:08;8.88;;;6.90;;
29378;SDS011;16362;47.202;15.258;2023-09-08T05:23:34;7.40;;;6.55;;
29378;SDS011;16362;47.202;15.258;2023-09-08T05:26:02;7.65;;;7.03;;
29378;SDS011;16362;47.202;15.258;2023-09-08T05:28:30;12.30;;;7.90;;
29378;SDS011;16362;47.202;15.258;2023-09-08T05:30:58;8.57;;;7.72;;
29378;SDS011;16362;47.202;15.258;2023-09-08T05:33:25;8.02;;;6.55;;
29378;SDS011;16362;47.202;15.258;2023-09-08T05:35:53;6.95;;;6.40;;
29378;SDS011;16362;47.202;15.258;2023-09-08T05:38:19;5.65;;;5.45;;
29378;SDS011;16362;47.202;15.258;2023-09-08T05:40:46;8.38;;;5.63;;
29378;SDS011;16362;47.202;15.258;2023-09-08T05:43:14;6.82;;;6.32;;
29378;SDS011;16362;47.202;15.258;2023-09-08T05:45:41;6.47;;;5.85;;
29378;SDS011;16362;47.202;15.258;2023-09-08T05:48:08;7.22;;;6.63;;
29378;SDS011;16362;47.202;15.258;2023-09-08T05:50:35;6.10;;;5.80;;
29378;SDS011;16362;47.202;15.258;2023-09-08T05:53:03;7.00;;;6.50;;
29378;SDS011;16362;47.202;15.258;2023-09-08T05:55:29;7.78;;;7.00;;
29378;SDS011;16362;47.202;15.258;2023-09-08T05:57:56;11.88;;;7.18;;
29378;SDS011;16362;47.202;15.258;2023-09-08T06:00:22;6.68;;;6.03;;
29378;SDS011;16362;47.202;15.258;2023-09-08T06:02:49;6.85;;;6.25;;
29378;SDS011;16362;47.202;15.258;2023-09-08T06:05:16;7.32;;;6.65;;
29378;SDS011;16362;47.202;15.258;2023-09-08T06:07:43;6.60;;;6.20;;
29378;SDS011;16362;47.202;15.258;2023-09-08T06:10:29;6.13;;;5.65;;
29378;SDS011;16362;47.202;15.258;2023-09-08T06:12:58;6.18;;;5.78;;
29378;SDS011;16362;47.202;15.258;2023-09-08T06:15:25;6.10;;;5.60;;
29378;SDS011;16362;47.202;15.258;2023-09-08T06:17:52;10.65;;;6.38;;
29378;SDS011;16362;47.202;15.258;2023-09-08T06:20:20;10.63;;;6.75;;
29378;SDS011;16362;47.202;15.258;2023-09-08T06:22:47;7.40;;;5.78;;
29378;SDS011;16362;47.202;15.258;2023-09-08T06:25:17;6.38;;;5.82;;
29378;SDS011;16362;47.202;15.258;2023-09-08T06:27:44;6.10;;;5.60;;
29378;SDS011;16362;47.202;15.258;2023-09-08T06:30:13;6.68;;;6.07;;
29378;SDS011;16362;47.202;15.258;2023-09-08T06:32:47;6.60;;;6.20;;
29378;SDS011;16362;47.202;15.258;2023-09-08T06:35:16;8.60;;;6.40;;
29378;SDS011;16362;47.202;15.258;2023-09-08T06:37:47;8.50;;;6.00;;
29378;SDS011;16362;47.202;15.258;2023-09-08T06:40:14;7.03;;;6.63;;
29378;SDS011;16362;47.202;15.258;2023-09-08T06:42:41;7.25;;;6.63;;
29378;SDS011;16362;47.202;15.258;2023-09-08T06:45:08;6.88;;;6.28;;
29378;SDS011;16362;47.202;15.258;2023-09-08T06:47:36;5.75;;;5.35;;
29378;SDS011;16362;47.202;15.258;2023-09-08T06:50:03;8.57;;;6.20;;
29378;SDS011;16362;47.202;15.258;2023-09-08T06:52:33;6.22;;;5.85;;
29378;SDS011;16362;47.202;15.258;2023-09-08T06:55:00;8.70;;;5.90;;
29378;SDS011;16362;47.202;15.258;2023-09-08T06:57:27;7.07;;;6.45;;
29378;SDS011;16362;47.202;15.258;2023-09-08T06:59:54;6.28;;;5.80;;
29378;SDS011;16362;47.202;15.258;2023-09-08T07:02:21;5.95;;;5.50;;
29378;SDS011;16362;47.202;15.258;2023-09-08T07:04:51;6.78;;;6.18;;
29378;SDS011;16362;47.202;15.258;2023-09-08T07:07:19;6.40;;;5.82;;
29378;SDS011;16362;47.202;15.258;2023-09-08T07:09:47;7.45;;;6.60;;
29378;SDS011;16362;47.202;15.258;2023-09-08T07:12:13;6.05;;;5.65;;
29378;SDS011;16362;47.202;15.258;2023-09-08T07:14:43;6.88;;;6.28;;
29378;SDS011;16362;47.202;15.258;2023-09-08T07:17:11;7.90;;;5.82;;
29378;SDS011;16362;47.202;15.258;2023-09-08T07:19:38;7.88;;;5.88;;
29378;SDS011;16362;47.202;15.258;2023-09-08T07:22:05;12.23;;;6.93;;
29378;SDS011;16362;47.202;15.258;2023-09-08T07:24:32;6.82;;;6.32;;
29378;SDS011;16362;47.202;15.258;2023-09-08T07:26:59;6.78;;;5.82;;
29378;SDS011;16362;47.202;15.258;2023-09-08T07:29:26;6.78;;;6.20;;
29378;SDS011;16362;47.202;15.258;2023-09-08T07:31:53;6.32;;;5.80;;
29378;SDS011;16362;47.202;15.258;2023-09-08T07:34:20;6.55;;;6.15;;
29378;SDS011;16362;47.202;15.258;2023-09-08T07:36:46;6.72;;;6.07;;
29378;SDS011;16362;47.202;15.258;2023-09-08T07:39:13;6.82;;;6.32;;
29378;SDS011;16362;47.202;15.258;2023-09-08T07:41:40;7.82;;;6.72;;
29378;SDS011;16362;47.202;15.258;2023-09-08T07:44:07;9.07;;;6.63;;
29378;SDS011;16362;47.202;15.258;2023-09-08T07:46:33;8.73;;;6.25;;
29378;SDS011;16362;47.202;15.258;2023-09-08T07:49:00;6.45;;;6.00;;
29378;SDS011;16362;47.202;15.258;2023-09-08T07:51:28;8.25;;;6.72;;
29378;SDS011;16362;47.202;15.258;2023-09-08T07:53:56;7.47;;;6.32;;
29378;SDS011;16362;47.202;15.258;2023-09-08T07:56:23;5.70;;;5.35;;
29378;SDS011;16362;47.202;15.258;2023-09-08T07:58:50;6.97;;;6.57;;
29378;SDS011;16362;47.202;15.258;2023-09-08T08:01:16;7.05;;;6.63;;
29378;SDS011;16362;47.202;15.258;2023-09-08T08:03:45;10.30;;;6.78;;
29378;SDS011;16362;47.202;15.258;2023-09-08T08:06:12;7.07;;;6.40;;
29378;SDS011;16362;47.202;15.258;2023-09-08T08:08:39;7.32;;;6.55;;
29378;SDS011;16362;47.202;15.258;2023-09-08T08:11:10;10.98;;;6.80;;
29378;SDS011;16362;47.202;15.258;2023-09-08T08:13:39;6.72;;;5.70;;
29378;SDS011;16362;47.202;15.258;2023-09-08T08:16:06;7.68;;;6.28;;
29378;SDS011;16362;47.202;15.258;2023-09-08T08:18:34;7.50;;;6.43;;
29378;SDS011;16362;47.202;15.258;2023-09-08T08:21:01;7.03;;;5.90;;
29378;SDS011;16362;47.202;15.258;2023-09-08T08:23:30;9.57;;;7.07;;
29378;SDS011;16362;47.202;15.258;2023-09-08T08:25:59;8.25;;;6.53;;
29378;SDS011;16362;47.202;15.258;2023-09-08T08:28:27;10.88;;;6.47;;
29378;SDS011;16362;47.202;15.258;2023-09-08T08:30:53;6.68;;;6.15;;
29378;SDS011;16362;47.202;15.258;2023-09-08T08:33:25;13.02;;;6.20;;
29378;SDS011;16362;47.202;15.258;2023-09-08T08:35:52;7.00;;;6.40;;
29378;SDS011;16362;47.202;15.258;2023-09-08T08:38:20;10.52;;;7.00;;
29378;SDS011;16362;47.202;15.258;2023-09-08T08:40:48;6.97;;;6.38;;
29378;SDS011;16362;47.202;15.258;2023-09-08T08:43:15;7.07;;;6.45;;
29378;SDS011;16362;47.202;15.258;2023-09-08T08:45:43;8.52;;;7.13;;
29378;SDS011;16362;47.202;15.258;2023-09-08T08:48:10;13.60;;;6.78;;
29378;SDS011;16362;47.202;15.258;2023-09-08T08:50:40;9.48;;;6.93;;
29378;SDS011;16362;47.202;15.258;2023-09-08T08:53:09;8.23;;;6.93;;
29378;SDS011;16362;47.202;15.258;2023-09-08T08:55:38;7.30;;;6.30;;
29378;SDS011;16362;47.202;15.258;2023-09-08T08:58:06;7.10;;;6.10;;
29378;SDS011;16362;47.202;15.258;2023-09-08T09:00:36;12.85;;;7.78;;
29378;SDS011;16362;47.202;15.258;2023-09-08T09:03:04;6.38;;;5.93;;
29378;SDS011;16362;47.202;15.258;2023-09-08T09:05:41;6.57;;;5.80;;
29378;SDS011;16362;47.202;15.258;2023-09-08T09:08:28;6.28;;;5.70;;
29378;SDS011;16362;47.202;15.258;2023-09-08T09:10:55;7.53;;;5.50;;
29378;SDS011;16362;47.202;15.258;2023-09-08T09:13:22;6.28;;;5.57;;
29378;SDS011;16362;47.202;15.258;2023-09-08T09:15:49;5.32;;;5.13;;
29378;SDS011;16362;47.202;15.258;2023-09-08T09:18:16;5.13;;;4.78;;
29378;SDS011;16362;47.202;15.258;2023-09-08T09:20:53;5.28;;;4.95;;
29378;SDS011;16362;47.202;15.258;2023-09-08T09:23:32;5.28;;;5.03;;
29378;SDS011;16362;47.202;15.258;2023-09-08T09:26:01;5.00;;;4.63;;
29378;SDS011;16362;47.202;15.258;2023-09-08T09:28:30;6.30;;;4.88;;
29378;SDS011;16362;47.202;15.258;2023-09-08T09:30:57;6.47;;;5.10;;
29378;SDS011;16362;47.202;15.258;2023-09-08T09:33:28;6.00;;;4.25;;
29378;SDS011;16362;47.202;15.258;2023-09-08T09:35:57;6.03;;;4.28;;
29378;SDS011;16362;47.202;15.258;2023-09-08T09:38:27;6.35;;;4.28;;
29378;SDS011;16362;47.202;15.258;2023-09-08T09:40:55;8.75;;;4.78;;
29378;SDS011;16362;47.202;15.258;2023-09-08T09:43:24;4.55;;;4.35;;
29378;SDS011;16362;47.202;15.258;2023-09-08T09:46:00;4.45;;;4.25;;
29378;SDS011;16362;47.202;15.258;2023-09-08T09:48:26;6.63;;;4.30;;
29378;SDS011;16362;47.202;15.258;2023-09-08T09:50:54;4.50;;;4.13;;
29378;SDS011;16362;47.202;15.258;2023-09-08T09:53:21;4.93;;;4.45;;
29378;SDS011;16362;47.202;15.258;2023-09-08T09:55:49;5.25;;;4.32;;
29378;SDS011;16362;47.202;15.258;2023-09-08T09:58:16;4.63;;;4.22;;
29378;SDS011;16362;47.202;15.258;2023-09-08T10:00:45;4.97;;;4.60;;
29378;SDS011;16362;47.202;15.258;2023-09-08T10:03:15;4.85;;;4.50;;
29378;SDS011;16362;47.202;15.258;2023-09-08T10:05:43;6.43;;;4.80;;
29378;SDS011;16362;47.202;15.258;2023-09-08T10:08:11;7.22;;;4.70;;
29378;SDS011;16362;47.202;15.258;2023-09-08T10:10:38;4.70;;;4.50;;
29378;SDS011;16362;47.202;15.258;2023-09-08T10:13:09;4.70;;;4.40;;
29378;SDS011;16362;47.202;15.258;2023-09-08T10:15:39;9.38;;;4.70;;
29378;SDS011;16362;47.202;15.258;2023-09-08T10:18:07;7.60;;;4.85;;
29378;SDS011;16362;47.202;15.258;2023-09-08T10:20:41;7.80;;;5.07;;
29378;SDS011;16362;47.202;15.258;2023-09-08T10:23:27;6.13;;;4.50;;
29378;SDS011;16362;47.202;15.258;2023-09-08T10:26:05;5.05;;;4.75;;
29378;SDS011;16362;47.202;15.258;2023-09-08T10:28:36;7.65;;;5.15;;
29378;SDS011;16362;47.202;15.258;2023-09-08T10:31:05;5.93;;;5.45;;
29378;SDS011;16362;47.202;15.258;2023-09-08T10:33:34;5.00;;;4.80;;
29378;SDS011;16362;47.202;15.258;2023-09-08T10:36:04;6.38;;;4.75;;
29378;SDS011;16362;47.202;15.258;2023-09-08T10:38:34;9.20;;;5.10;;
29378;SDS011;16362;47.202;15.258;2023-09-08T10:43:44;5.38;;;5.07;;
29378;SDS011;16362;47.202;15.258;2023-09-08T10:46:26;5.85;;;4.97;;
29378;SDS011;16362;47.202;15.258;2023-09-08T10:48:54;6.07;;;5.57;;
29378;SDS011;16362;47.202;15.258;2023-09-08T10:51:27;6.55;;;5.07;;
29378;SDS011;16362;47.202;15.258;2023-09-08T10:53:54;7.85;;;4.78;;
29378;SDS011;16362;47.202;15.258;2023-09-08T10:56:21;5.10;;;4.80;;
29378;SDS011;16362;47.202;15.258;2023-09-08T10:58:53;6.97;;;4.45;;
29378;SDS011;16362;47.202;15.258;2023-09-08T11:01:21;5.50;;;5.00;;
29378;SDS011;16362;47.202;15.258;2023-09-08T11:03:53;5.38;;;5.07;;
29378;SDS011;16362;47.202;15.258;2023-09-08T11:06:20;7.47;;;6.60;;
29378;SDS011;16362;47.202;15.258;2023-09-08T11:08:50;5.88;;;5.45;;
29378;SDS011;16362;47.202;15.258;2023-09-08T11:11:23;6.00;;;4.97;;
29378;SDS011;16362;47.202;15.258;2023-09-08T11:13:50;5.82;;;5.43;;
29378;SDS011;16362;47.202;15.258;2023-09-08T11:16:20;5.25;;;4.78;;
29378;SDS011;16362;47.202;15.258;2023-09-08T11:18:51;5.05;;;4.53;;
29378;SDS011;16362;47.202;15.258;2023-09-08T11:21:20;12.70;;;6.18;;
29378;SDS011;16362;47.202;15.258;2023-09-08T11:23:47;5.18;;;4.88;;
29378;SDS011;16362;47.202;15.258;2023-09-08T11:26:14;5.82;;;4.72;;
29378;SDS011;16362;47.202;15.258;2023-09-08T11:28:41;6.47;;;4.70;;
29378;SDS011;16362;47.202;15.258;2023-09-08T11:31:11;4.93;;;4.53;;
29378;SDS011;16362;47.202;15.258;2023-09-08T11:33:38;4.57;;;4.25;;
29378;SDS011;16362;47.202;15.258;2023-09-08T11:36:13;4.75;;;4.55;;
29378;SDS011;16362;47.202;15.258;2023-09-08T11:38:43;5.55;;;4.57;;
29378;SDS011;16362;47.202;15.258;2023-09-08T11:41:13;7.85;;;4.68;;
29378;SDS011;16362;47.202;15.258;2023-09-08T11:43:41;5.40;;;4.90;;
29378;SDS011;16362;47.202;15.258;2023-09-08T11:46:08;4.88;;;4.40;;
29378;SDS011;16362;47.202;15.258;2023-09-08T11:48:38;4.72;;;4.38;;
29378;SDS011;16362;47.202;15.258;2023-09-08T11:51:07;6.90;;;4.45;;
29378;SDS011;16362;47.202;15.258;2023-09-08T11:53:37;6.30;;;4.65;;
29378;SDS011;16362;47.202;15.258;2023-09-08T11:56:06;5.25;;;4.80;;
29378;SDS011;16362;47.202;15.258;2023-09-08T11:58:33;10.50;;;4.45;;
29378;SDS011;16362;47.202;15.258;2023-09-08T12:01:01;5.45;;;4.95;;
29378;SDS011;16362;47.202;15.258;2023-09-08T12:03:30;11.35;;;5.35;;
29378;SDS011;16362;47.202;15.258;2023-09-08T12:05:57;5.13;;;4.72;;
29378;SDS011;16362;47.202;15.258;2023-09-08T12:08:25;5.82;;;4.50;;
29378;SDS011;16362;47.202;15.258;2023-09-08T12:10:53;4.63;;;4.40;;
29378;SDS011;16362;47.202;15.258;2023-09-08T12:13:21;7.35;;;4.82;;
29378;SDS011;16362;47.202;15.258;2023-09-08T12:15:49;5.55;;;5.03;;
29378;SDS011;16362;47.202;15.258;2023-09-08T12:18:16;5.35;;;4.93;;
29378;SDS011;16362;47.202;15.258;2023-09-08T12:20:43;8.25;;;4.82;;
29378;SDS011;16362;47.202;15.258;2023-09-08T12:23:20;4.80;;;4.50;;
29378;SDS011;16362;47.202;15.258;2023-09-08T12:25:49;6.70;;;4.88;;
29378;SDS011;16362;47.202;15.258;2023-09-08T12:28:18;5.28;;;4.78;;
29378;SDS011;16362;47.202;15.258;2023-09-08T12:30:46;4.75;;;4.45;;
29378;SDS011;16362;47.202;15.258;2023-09-08T12:33:15;7.32;;;4.57;;
29378;SDS011;16362;47.202;15.258;2023-09-08T12:35:43;7.05;;;4.70;;
29378;SDS011;16362;47.202;15.258;2023-09-08T12:38:11;4.88;;;4.57;;
29378;SDS011;16362;47.202;15.258;2023-09-08T12:40:40;5.57;;;4.93;;
29378;SDS011;16362;47.202;15.258;2023-09-08T12:43:07;6.03;;;4.72;;
29378;SDS011;16362;47.202;15.258;2023-09-08T12:45:53;5.35;;;4.95;;
29378;SDS011;16362;47.202;15.258;2023-09-08T12:48:21;5.40;;;4.93;;
29378;SDS011;16362;47.202;15.258;2023-09-08T12:50:48;5.32;;;4.80;;
29378;SDS011;16362;47.202;15.258;2023-09-08T12:53:16;5.40;;;5.00;;
29378;SDS011;16362;47.202;15.258;2023-09-08T12:55:46;5.30;;;5.10;;
29378;SDS011;16362;47.202;15.258;2023-09-08T12:58:16;5.57;;;4.60;;
29378;SDS011;16362;47.202;15.258;2023-09-08T13:00:43;11.45;;;4.82;;
29378;SDS011;16362;47.202;15.258;2023-09-08T13:03:10;5.13;;;4.53;;
29378;SDS011;16362;47.202;15.258;2023-09-08T13:05:37;5.13;;;4.82;;
29378;SDS011;16362;47.202;15.258;2023-09-08T13:08:06;6.75;;;4.70;;
29378;SDS011;16362;47.202;15.258;2023-09-08T13:10:33;12.68;;;5.18;;
29378;SDS011;16362;47.202;15.258;2023-09-08T13:13:03;5.38;;;5.07;;
29378;SDS011;16362;47.202;15.258;2023-09-08T13:15:34;5.40;;;5.00;;
29378;SDS011;16362;47.202;15.258;2023-09-08T13:18:00;6.32;;;5.05;;
29378;SDS011;16362;47.202;15.258;2023-09-08T13:20:28;9.02;;;5.35;;
29378;SDS011;16362;47.202;15.258;2023-09-08T13:22:56;8.18;;;5.32;;
29378;SDS011;16362;47.202;15.258;2023-09-08T13:25:22;4.97;;;4.40;;
29378;SDS011;16362;47.202;15.258;2023-09-08T13:27:50;5.40;;;4.85;;
29378;SDS011;16362;47.202;15.258;2023-09-08T13:30:17;5.53;;;5.15;;
29378;SDS011;16362;47.202;15.258;2023-09-08T13:32:45;5.50;;;5.00;;
29378;SDS011;16362;47.202;15.258;2023-09-08T13:35:12;5.45;;;4.93;;
29378;SDS011;16362;47.202;15.258;2023-09-08T13:37:40;5.00;;;4.80;;
29378;SDS011;16362;47.202;15.258;2023-09-08T13:40:09;5.20;;;4.78;;
29378;SDS011;16362;47.202;15.258;2023-09-08T13:42:38;4.65;;;4.45;;
29378;SDS011;16362;47.202;15.258;2023-09-08T13:45:04;5.13;;;4.70;;
29378;SDS011;16362;47.202;15.258;2023-09-08T13:47:31;5.65;;;5.25;;
29378;SDS011;16362;47.202;15.258;2023-09-08T13:50:00;4.53;;;4.32;;
29378;SDS011;16362;47.202;15.258;2023-09-08T13:52:30;4.90;;;4.65;;
29378;SDS011;16362;47.202;15.258;2023-09-08T13:54:59;5.43;;;4.90;;
29378;SDS011;16362;47.202;15.258;2023-09-08T13:57:45;4.80;;;4.60;;
29378;SDS011;16362;47.202;15.258;2023-09-08T14:00:15;5.53;;;4.85;;
29378;SDS011;16362;47.202;15.258;2023-09-08T14:02:48;5.28;;;4.97;;
29378;SDS011;16362;47.202;15.258;2023-09-08T14:05:17;5.55;;;5.07;;
29378;SDS011;16362;47.202;15.258;2023-09-08T14:07:50;5.43;;;4.93;;
29378;SDS011;16362;47.202;15.258;2023-09-08T14:10:27;5.03;;;4.80;;
29378;SDS011;16362;47.202;15.258;2023-09-08T14:13:06;5.32;;;4.53;;
29378;SDS011;16362;47.202;15.258;2023-09-08T14:15:33;5.80;;;4.95;;
29378;SDS011;16362;47.202;15.258;2023-09-08T14:18:00;7.90;;;5.18;;
29378;SDS011;16362;47.202;15.258;2023-09-08T14:20:29;4.95;;;4.65;;
29378;SDS011;16362;47.202;15.258;2023-09-08T14:22:55;5.22;;;4.80;;
29378;SDS011;16362;47.202;15.258;2023-09-08T14:25:24;5.20;;;4.45;;
29378;SDS011;16362;47.202;15.258;2023-09-08T14:27:51;5.28;;;4.78;;
29378;SDS011;16362;47.202;15.258;2023-09-08T14:30:18;5.30;;;4.90;;
29378;SDS011;16362;47.202;15.258;2023-09-08T14:32:44;4.93;;;4.63;;
29378;SDS011;16362;47.202;15.258;2023-09-08T14:35:13;4.78;;;4.47;;
29378;SDS011;16362;47.202;15.258;2023-09-08T14:37:45;4.90;;;4.60;;
29378;SDS011;16362;47.202;15.258;2023-09-08T14:40:17;5.15;;;4.70;;
29378;SDS011;16362;47.202;15.258;2023-09-08T14:42:44;4.75;;;4.40;;
29378;SDS011;16362;47.202;15.258;2023-09-08T14:45:10;4.70;;;4.50;;